createdAt,value
2023-05-16T00:01:13.271Z,15.63
2023-05-16T00:03:41.358Z,15.86
2023-05-16T00:06:09.530Z,15.87
2023-05-16T00:08:37.235Z,15.65
2023-05-16T00:11:05.093Z,15.58
2023-05-16T00:13:32.801Z,15.54
2023-05-16T00:16:00.370Z,15.41
2023-05-16T00:18:28.471Z,15.35
2023-05-16T00:20:56.060Z,15.32
2023-05-16T00:23:23.749Z,15.32
2023-05-16T00:25:51.652Z,15.30
2023-05-16T00:28:19.399Z,15.48
2023-05-16T00:30:47.508Z,15.31
2023-05-16T00:33:16.731Z,15.29
2023-05-16T00:35:44.392Z,15.30
2023-05-16T00:38:12.139Z,15.32
2023-05-16T00:40:40.198Z,15.23
2023-05-16T00:43:10.460Z,15.19
2023-05-16T00:45:38.033Z,15.17
2023-05-16T00:48:06.097Z,15.17
2023-05-16T00:50:34.385Z,15.35
2023-05-16T00:53:02.238Z,15.35
2023-05-16T00:55:30.260Z,15.28
2023-05-16T00:57:58.245Z,15.35
2023-05-16T01:00:26.328Z,15.31
2023-05-16T01:02:54.773Z,15.26
2023-05-16T01:05:22.476Z,15.19
2023-05-16T01:07:50.106Z,15.24
2023-05-16T01:10:18.159Z,15.30
2023-05-16T01:12:53.537Z,15.17
2023-05-16T01:15:30.924Z,15.07
2023-05-16T01:18:25.602Z,15.03
2023-05-16T01:21:00.195Z,15.09
2023-05-16T01:23:31.721Z,15.15
2023-05-16T01:26:11.393Z,15.19
2023-05-16T01:28:39.618Z,15.13
2023-05-16T01:31:07.614Z,15.04
2023-05-16T01:33:35.294Z,15.01
2023-05-16T01:36:32.088Z,15.15
2023-05-16T01:39:27.358Z,14.99
2023-05-16T01:42:03.934Z,15.01
2023-05-16T01:44:36.349Z,14.98
2023-05-16T01:47:10.216Z,14.94
2023-05-16T01:49:45.573Z,14.90
2023-05-16T01:52:20.373Z,14.90
2023-05-16T01:54:49.138Z,15.00
2023-05-16T01:57:17.297Z,15.02
2023-05-16T01:59:47.119Z,14.92
2023-05-16T02:02:18.426Z,14.94
2023-05-16T02:04:46.614Z,14.82
2023-05-16T02:07:15.212Z,14.72
2023-05-16T02:09:42.880Z,14.85
2023-05-16T02:12:10.810Z,14.88
2023-05-16T02:14:38.569Z,14.87
2023-05-16T02:17:07.386Z,14.85
2023-05-16T02:19:35.048Z,14.88
2023-05-16T02:22:02.707Z,14.76
2023-05-16T02:24:30.625Z,14.60
2023-05-16T02:26:58.450Z,14.54
2023-05-16T02:29:26.193Z,14.50
2023-05-16T02:31:54.452Z,14.65
2023-05-16T02:34:22.145Z,14.47
2023-05-16T02:36:49.856Z,14.51
2023-05-16T02:39:17.885Z,14.57
2023-05-16T02:41:45.539Z,14.57
2023-05-16T02:44:13.140Z,14.49
2023-05-16T02:46:42.542Z,14.58
2023-05-16T02:49:10.897Z,14.33
2023-05-16T02:51:39.637Z,14.33
2023-05-16T02:54:07.696Z,14.35
2023-05-16T02:56:36.105Z,14.31
2023-05-16T02:59:04.545Z,14.37
2023-05-16T03:01:32.714Z,14.31
2023-05-16T03:04:00.501Z,14.37
2023-05-16T03:06:28.326Z,14.31
2023-05-16T03:08:56.299Z,14.35
2023-05-16T03:11:23.936Z,14.35
2023-05-16T03:13:51.665Z,14.25
2023-05-16T03:16:19.681Z,14.31
2023-05-16T03:18:47.797Z,14.31
2023-05-16T03:21:15.485Z,14.32
2023-05-16T03:23:45.600Z,14.42
2023-05-16T03:26:13.254Z,14.36
2023-05-16T03:28:40.935Z,14.39
2023-05-16T03:31:08.960Z,14.41
2023-05-16T03:33:36.677Z,14.39
2023-05-16T03:36:04.434Z,14.28
2023-05-16T03:38:32.377Z,14.20
2023-05-16T03:40:59.985Z,14.14
2023-05-16T03:43:27.557Z,14.17
2023-05-16T03:45:55.798Z,14.18
2023-05-16T03:48:23.504Z,14.25
2023-05-16T03:50:51.100Z,14.35
2023-05-16T03:53:19.127Z,14.42
2023-05-16T03:55:48.103Z,14.46
2023-05-16T03:58:16.537Z,14.49
2023-05-16T04:00:44.449Z,14.38
2023-05-16T04:03:12.537Z,14.47
2023-05-16T04:05:40.281Z,14.47
2023-05-16T04:08:07.952Z,14.53
2023-05-16T04:10:35.867Z,14.49
2023-05-16T04:13:03.481Z,14.54
2023-05-16T04:15:31.135Z,14.66
2023-05-16T04:17:59.130Z,14.65
2023-05-16T04:20:26.876Z,14.69
2023-05-16T04:22:54.749Z,14.59
2023-05-16T04:25:22.646Z,14.71
2023-05-16T04:27:50.368Z,14.63
2023-05-16T04:30:19.123Z,14.79
2023-05-16T04:32:47.046Z,14.80
2023-05-16T04:35:14.760Z,14.72
2023-05-16T04:37:42.457Z,14.75
2023-05-16T04:40:10.834Z,14.87
2023-05-16T04:42:38.444Z,14.89
2023-05-16T04:45:06.882Z,14.78
2023-05-16T04:47:34.902Z,14.86
2023-05-16T04:50:03.234Z,14.74
2023-05-16T04:52:31.088Z,14.74
2023-05-16T04:54:59.050Z,14.87
2023-05-16T04:57:27.169Z,14.85
2023-05-16T04:59:55.056Z,14.77
2023-05-16T05:02:23.087Z,15.03
2023-05-16T05:04:50.793Z,14.78
2023-05-16T05:07:18.436Z,14.94
2023-05-16T05:09:46.286Z,14.97
2023-05-16T05:12:13.860Z,15.00
2023-05-16T05:14:41.520Z,15.02
2023-05-16T05:17:09.471Z,14.93
2023-05-16T05:19:37.216Z,15.09
2023-05-16T05:22:05.357Z,15.12
2023-05-16T05:24:33.425Z,15.08
2023-05-16T05:27:01.410Z,14.94
2023-05-16T05:29:29.053Z,14.88
2023-05-16T05:31:57.013Z,15.10
2023-05-16T05:34:24.659Z,15.00
2023-05-16T05:36:52.328Z,15.07
2023-05-16T05:39:20.372Z,15.11
2023-05-16T05:41:48.091Z,15.07
2023-05-16T05:44:15.800Z,15.03
2023-05-16T05:46:43.877Z,15.22
2023-05-16T05:49:11.613Z,15.22
2023-05-16T05:51:39.289Z,15.16
2023-05-16T05:54:07.222Z,15.16
2023-05-16T05:56:34.908Z,15.17
2023-05-16T05:59:02.485Z,15.10
2023-05-16T06:01:30.390Z,15.05
2023-05-16T06:03:59.688Z,15.03
2023-05-16T06:06:29.424Z,15.16
2023-05-16T06:08:57.262Z,15.00
2023-05-16T06:11:25.317Z,15.12
2023-05-16T06:13:53.228Z,15.08
2023-05-16T06:16:24.940Z,15.17
2023-05-16T06:18:53.133Z,15.20
2023-05-16T06:21:20.843Z,15.06
2023-05-16T06:23:48.437Z,15.08
2023-05-16T06:26:16.352Z,15.11
2023-05-16T06:28:44.048Z,15.06
2023-05-16T06:31:11.696Z,15.35
2023-05-16T06:33:39.578Z,15.29
2023-05-16T06:36:07.452Z,15.24
2023-05-16T06:38:35.027Z,15.24
2023-05-16T06:41:02.960Z,15.29
2023-05-16T06:43:30.616Z,15.43
2023-05-16T06:45:58.295Z,15.33
2023-05-16T06:48:26.297Z,15.26
2023-05-16T06:50:54.380Z,15.25
2023-05-16T06:53:22.134Z,15.28
2023-05-16T06:55:50.015Z,15.38
2023-05-16T06:58:17.790Z,15.36
2023-05-16T07:00:45.534Z,15.39
2023-05-16T07:03:13.758Z,15.36
2023-05-16T07:05:41.604Z,15.28
2023-05-16T07:08:09.626Z,15.22
2023-05-16T07:10:37.703Z,15.48
2023-05-16T07:13:05.689Z,15.39
2023-05-16T07:15:33.430Z,15.20
2023-05-16T07:18:02.131Z,15.18
2023-05-16T07:20:33.248Z,15.24
2023-05-16T07:23:01.196Z,15.13
2023-05-16T07:25:29.274Z,15.11
2023-05-16T07:27:57.039Z,15.26
2023-05-16T07:30:25.047Z,15.18
2023-05-16T07:32:52.931Z,15.20
2023-05-16T07:35:20.703Z,15.21
2023-05-16T07:37:48.721Z,15.10
2023-05-16T07:40:16.325Z,15.20
2023-05-16T07:42:44.319Z,15.11
2023-05-16T07:45:12.351Z,15.04
2023-05-16T07:47:40.041Z,15.18
2023-05-16T07:50:08.017Z,15.13
2023-05-16T07:52:36.085Z,15.23
2023-05-16T07:55:04.282Z,15.24
2023-05-16T07:57:32.006Z,15.33
2023-05-16T08:00:00.075Z,15.21
2023-05-16T08:02:27.930Z,15.13
2023-05-16T08:04:59.184Z,15.09
2023-05-16T08:07:26.917Z,15.17
2023-05-16T08:09:55.293Z,14.95
2023-05-16T08:12:24.481Z,15.09
2023-05-16T08:14:52.205Z,15.04
2023-05-16T08:17:19.896Z,15.13
2023-05-16T08:19:47.897Z,15.05
2023-05-16T08:22:15.620Z,15.39
2023-05-16T08:24:43.228Z,15.13
2023-05-16T08:27:11.139Z,15.06
2023-05-16T08:29:38.790Z,15.09
2023-05-16T08:32:06.741Z,15.17
2023-05-16T08:34:34.600Z,15.16
2023-05-16T08:37:02.345Z,15.28
2023-05-16T08:39:29.917Z,15.28
2023-05-16T08:41:57.891Z,15.32
2023-05-16T08:44:26.199Z,15.32
2023-05-16T08:46:54.842Z,15.19
2023-05-16T08:49:23.305Z,15.38
2023-05-16T08:51:52.323Z,15.48
2023-05-16T08:54:20.283Z,15.57
2023-05-16T08:56:48.928Z,15.57
2023-05-16T08:59:16.995Z,15.65
2023-05-16T09:01:44.863Z,15.69
2023-05-16T09:04:13.076Z,15.83
2023-05-16T09:06:41.065Z,16.05
2023-05-16T09:09:08.760Z,16.06
2023-05-16T09:11:37.217Z,16.15
2023-05-16T09:14:05.333Z,16.12
2023-05-16T09:16:32.975Z,16.18
2023-05-16T09:19:02.008Z,15.95
2023-05-16T09:21:31.419Z,15.78
2023-05-16T09:24:09.591Z,16.03
2023-05-16T09:26:56.234Z,15.99
2023-05-16T09:29:23.923Z,15.88
2023-05-16T09:31:51.987Z,15.94
2023-05-16T09:34:23.289Z,15.77
2023-05-16T09:36:54.945Z,16.04
2023-05-16T09:39:27.475Z,15.87
2023-05-16T09:41:55.405Z,15.81
2023-05-16T09:44:23.340Z,15.64
2023-05-16T09:46:51.023Z,15.83
2023-05-16T09:49:18.807Z,15.77
2023-05-16T09:51:47.018Z,15.93
2023-05-16T09:54:14.718Z,15.96
2023-05-16T09:56:51.748Z,15.78
2023-05-16T09:59:19.771Z,15.76
2023-05-16T10:01:47.576Z,15.87
2023-05-16T10:04:15.767Z,15.87
2023-05-16T10:06:43.554Z,15.90
2023-05-16T10:09:12.183Z,16.05
2023-05-16T10:11:42.241Z,16.08
2023-05-16T10:14:11.271Z,16.12
2023-05-16T10:16:43.296Z,15.89
2023-05-16T10:19:11.543Z,15.83
2023-05-16T10:21:40.744Z,15.79
2023-05-16T10:24:11.129Z,15.68
2023-05-16T10:26:39.136Z,15.69
2023-05-16T10:29:07.062Z,15.77
2023-05-16T10:31:35.082Z,15.69
2023-05-16T10:34:03.662Z,15.95
2023-05-16T10:36:31.548Z,15.82
2023-05-16T10:38:59.448Z,15.91
2023-05-16T10:41:27.555Z,15.95
2023-05-16T10:43:58.945Z,16.05
2023-05-16T10:46:28.136Z,16.04
2023-05-16T10:48:57.892Z,16.09
2023-05-16T10:51:32.537Z,15.96
2023-05-16T10:54:09.983Z,15.99
2023-05-16T10:56:37.874Z,16.15
2023-05-16T10:59:22.923Z,15.93
2023-05-16T11:01:55.604Z,15.89
2023-05-16T11:04:23.901Z,15.98
2023-05-16T11:06:52.831Z,16.01
2023-05-16T11:09:25.396Z,15.93
2023-05-16T11:11:56.919Z,16.04
2023-05-16T11:14:25.882Z,15.94
2023-05-16T11:17:13.374Z,16.01
2023-05-16T11:19:49.157Z,16.05
2023-05-16T11:22:19.808Z,16.07
2023-05-16T11:25:09.787Z,16.06
2023-05-16T11:27:44.227Z,16.13
2023-05-16T11:30:16.608Z,16.02
2023-05-16T11:32:46.736Z,16.01
2023-05-16T11:35:16.207Z,16.31
2023-05-16T11:37:45.210Z,16.15
2023-05-16T11:40:13.732Z,16.24
2023-05-16T11:42:43.548Z,16.44
2023-05-16T11:45:12.852Z,16.45
2023-05-16T11:47:41.767Z,16.28
2023-05-16T11:50:14.774Z,16.40
2023-05-16T11:52:44.405Z,16.45
2023-05-16T11:55:12.098Z,16.33
2023-05-16T11:57:39.786Z,16.34
2023-05-16T12:00:19.055Z,16.49
2023-05-16T12:02:47.898Z,16.51
2023-05-16T12:05:16.784Z,16.43
2023-05-16T12:07:45.427Z,16.51
2023-05-16T12:10:14.804Z,16.70
2023-05-16T12:12:45.143Z,16.78
2023-05-16T12:15:13.321Z,16.63
2023-05-16T12:17:41.583Z,16.77
2023-05-16T12:20:11.094Z,16.80
2023-05-16T12:22:40.070Z,16.64
2023-05-16T12:25:25.988Z,16.78
2023-05-16T12:28:01.944Z,16.70
2023-05-16T12:30:32.330Z,16.74
2023-05-16T12:33:05.779Z,16.57
2023-05-16T12:35:37.529Z,16.77
2023-05-16T12:38:06.752Z,16.50
2023-05-16T12:40:39.429Z,16.74
2023-05-16T12:43:20.966Z,16.73
2023-05-16T12:45:56.264Z,16.78
2023-05-16T12:48:32.149Z,16.92
2023-05-16T12:51:29.605Z,16.69
2023-05-16T12:54:09.383Z,16.83
2023-05-16T12:56:39.772Z,17.00
2023-05-16T12:59:08.485Z,16.96
2023-05-16T13:01:36.643Z,17.00
2023-05-16T13:04:05.083Z,16.93
2023-05-16T13:06:48.820Z,16.85
2023-05-16T13:09:20.987Z,16.77
2023-05-16T13:11:49.318Z,16.91
2023-05-16T13:14:16.994Z,16.72
2023-05-16T13:16:44.793Z,16.77
2023-05-16T13:19:12.849Z,16.82
2023-05-16T13:21:40.616Z,16.70
2023-05-16T13:24:08.359Z,16.70
2023-05-16T13:26:36.282Z,16.60
2023-05-16T13:29:03.965Z,16.68
2023-05-16T13:31:31.831Z,16.71
2023-05-16T13:33:59.909Z,16.69
2023-05-16T13:36:28.713Z,16.72
2023-05-16T13:39:01.314Z,16.68
2023-05-16T13:41:28.998Z,16.78
2023-05-16T13:43:56.516Z,16.96
2023-05-16T13:46:24.472Z,16.90
2023-05-16T13:48:52.160Z,17.00
2023-05-16T13:51:19.896Z,17.04
2023-05-16T13:53:48.104Z,17.04
2023-05-16T13:56:15.705Z,17.13
2023-05-16T13:58:59.790Z,17.20
2023-05-16T14:01:30.592Z,17.09
2023-05-16T14:03:58.635Z,17.05
2023-05-16T14:06:26.952Z,16.97
2023-05-16T14:08:57.827Z,16.97
2023-05-16T14:11:28.827Z,16.74
2023-05-16T14:13:57.901Z,16.81
2023-05-16T14:16:26.158Z,16.95
2023-05-16T14:18:53.989Z,16.68
2023-05-16T14:21:21.588Z,16.69
2023-05-16T14:23:49.546Z,16.54
2023-05-16T14:26:17.279Z,16.61
2023-05-16T14:28:46.698Z,16.47
2023-05-16T14:31:14.759Z,16.48
2023-05-16T14:33:42.354Z,16.52
2023-05-16T14:36:10.193Z,16.63
2023-05-16T14:38:38.112Z,16.60
2023-05-16T14:41:05.743Z,16.53
2023-05-16T14:43:33.502Z,16.51
2023-05-16T14:46:01.486Z,16.60
2023-05-16T14:48:29.194Z,16.53
2023-05-16T14:50:56.902Z,16.51
2023-05-16T14:53:24.855Z,16.52
2023-05-16T14:55:52.783Z,16.61
2023-05-16T14:58:20.530Z,16.46
2023-05-16T15:00:48.550Z,16.47
2023-05-16T15:03:19.307Z,16.51
2023-05-16T15:05:47.029Z,16.55
2023-05-16T15:08:15.049Z,16.52
2023-05-16T15:10:42.810Z,16.54
2023-05-16T15:13:10.773Z,16.43
2023-05-16T15:15:38.833Z,16.55
2023-05-16T15:18:06.589Z,16.60
2023-05-16T15:20:34.319Z,16.69
2023-05-16T15:23:02.287Z,16.68
2023-05-16T15:25:30.275Z,16.76
2023-05-16T15:27:58.036Z,16.67
2023-05-16T15:30:26.054Z,16.52
2023-05-16T15:32:53.924Z,16.56
2023-05-16T15:35:21.714Z,16.65
2023-05-16T15:37:49.685Z,16.71
2023-05-16T15:40:17.726Z,16.56
2023-05-16T15:42:45.382Z,16.54
2023-05-16T15:45:13.422Z,16.61
2023-05-16T15:47:41.688Z,16.59
2023-05-16T15:50:09.974Z,16.61
2023-05-16T15:52:39.276Z,16.48
2023-05-16T15:55:07.120Z,16.34
2023-05-16T15:57:34.832Z,16.47
2023-05-16T16:00:02.862Z,16.61
2023-05-16T16:02:39.699Z,16.37
2023-05-16T16:05:08.325Z,16.42
2023-05-16T16:07:36.088Z,16.51
2023-05-16T16:10:03.900Z,16.45
2023-05-16T16:12:32.171Z,16.44
2023-05-16T16:14:59.939Z,16.48
2023-05-16T16:17:27.798Z,16.38
2023-05-16T16:19:55.935Z,16.47
2023-05-16T16:22:23.799Z,16.54
2023-05-16T16:24:51.448Z,16.46
2023-05-16T16:27:19.433Z,16.51
2023-05-16T16:29:47.070Z,16.54
2023-05-16T16:32:14.709Z,16.59
2023-05-16T16:34:42.727Z,16.62
2023-05-16T16:37:10.474Z,16.48
2023-05-16T16:42:06.886Z,16.42
2023-05-16T16:44:34.633Z,16.48
2023-05-16T16:47:02.398Z,16.64
2023-05-16T16:49:30.793Z,16.54
2023-05-16T16:51:58.567Z,16.41
2023-05-16T16:54:26.250Z,16.38
2023-05-16T16:56:54.523Z,16.36
2023-05-16T16:59:22.241Z,16.39
2023-05-16T17:01:50.448Z,16.41
2023-05-16T17:04:18.523Z,16.37
2023-05-16T17:06:48.398Z,16.37
2023-05-16T17:09:16.908Z,16.46
2023-05-16T17:11:45.622Z,16.42
2023-05-16T17:14:13.733Z,16.42
2023-05-16T17:16:41.490Z,16.43
2023-05-16T17:19:10.289Z,16.32
2023-05-16T17:21:39.032Z,16.39
2023-05-16T17:24:07.534Z,16.40
2023-05-16T17:26:36.008Z,16.43
2023-05-16T17:29:03.696Z,16.53
2023-05-16T17:31:31.540Z,16.51
2023-05-16T17:33:59.594Z,16.51
2023-05-16T17:36:30.402Z,16.60
2023-05-16T17:38:58.031Z,16.62
2023-05-16T17:41:26.182Z,16.47
2023-05-16T17:43:54.317Z,16.49
2023-05-16T17:46:22.177Z,16.50
2023-05-16T17:48:50.702Z,16.54
2023-05-16T17:51:18.729Z,16.46
2023-05-16T17:53:46.556Z,16.47
2023-05-16T17:56:14.747Z,16.45
2023-05-16T17:58:43.493Z,16.47
2023-05-16T18:01:11.630Z,16.45
2023-05-16T18:03:39.795Z,16.51
2023-05-16T18:06:07.857Z,16.57
2023-05-16T18:08:35.929Z,16.64
2023-05-16T18:11:04.365Z,16.58
2023-05-16T18:13:32.069Z,16.45
2023-05-16T18:16:00.180Z,16.56
2023-05-16T18:18:28.797Z,16.56
2023-05-16T18:20:57.233Z,16.49
2023-05-16T18:23:26.234Z,16.49
2023-05-16T18:25:55.095Z,16.51
2023-05-16T18:28:22.902Z,16.56
2023-05-16T18:30:50.671Z,16.52
2023-05-16T18:33:18.659Z,16.51
2023-05-16T18:35:46.569Z,16.52
2023-05-16T18:38:28.133Z,16.50
2023-05-16T18:41:01.002Z,16.55
2023-05-16T18:43:29.900Z,16.56
2023-05-16T18:45:57.604Z,16.62
2023-05-16T18:48:25.719Z,16.55
2023-05-16T18:50:53.832Z,16.65
2023-05-16T18:53:21.651Z,16.63
2023-05-16T18:55:50.019Z,16.56
2023-05-16T18:58:17.953Z,16.53
2023-05-16T19:00:46.282Z,16.55
2023-05-16T19:03:14.417Z,16.68
2023-05-16T19:05:42.603Z,16.45
2023-05-16T19:08:10.632Z,16.53
2023-05-16T19:10:40.048Z,16.54
2023-05-16T19:13:08.312Z,16.49
2023-05-16T19:15:37.900Z,16.53
2023-05-16T19:18:08.949Z,16.52
2023-05-16T19:20:37.068Z,16.50
2023-05-16T19:23:05.038Z,16.54
2023-05-16T19:25:33.008Z,16.61
2023-05-16T19:28:00.681Z,16.59
2023-05-16T19:30:28.615Z,16.57
2023-05-16T19:32:57.112Z,16.53
2023-05-16T19:35:25.049Z,16.49
2023-05-16T19:37:52.703Z,16.51
2023-05-16T19:40:20.887Z,16.53
2023-05-16T19:42:48.632Z,16.44
2023-05-16T19:45:16.283Z,16.46
2023-05-16T19:47:44.897Z,16.30
2023-05-16T19:50:12.745Z,16.41
2023-05-16T19:52:40.359Z,16.59
2023-05-16T19:55:08.571Z,16.50
2023-05-16T19:57:36.316Z,16.44
2023-05-16T20:00:04.512Z,16.43
2023-05-16T20:02:40.432Z,16.42
2023-05-16T20:05:08.851Z,16.32
2023-05-16T20:07:36.570Z,16.40
2023-05-16T20:10:04.508Z,16.47
2023-05-16T20:12:32.519Z,16.55
2023-05-16T20:15:00.266Z,16.41
2023-05-16T20:17:27.936Z,16.35
2023-05-16T20:19:56.307Z,16.36
2023-05-16T20:22:24.010Z,16.40
2023-05-16T20:24:51.742Z,16.37
2023-05-16T20:27:19.699Z,16.44
2023-05-16T20:29:48.029Z,16.45
2023-05-16T20:32:15.882Z,16.39
2023-05-16T20:34:43.831Z,16.40
2023-05-16T20:37:11.436Z,16.39
2023-05-16T20:39:39.210Z,16.48
2023-05-16T20:42:07.495Z,16.54
2023-05-16T20:44:35.162Z,16.72
2023-05-16T20:47:02.813Z,16.70
2023-05-16T20:49:30.798Z,16.64
2023-05-16T20:51:58.498Z,16.50
2023-05-16T20:54:26.138Z,16.51
2023-05-16T20:56:54.199Z,16.50
2023-05-16T20:59:21.853Z,16.53
2023-05-16T21:01:49.494Z,16.61
2023-05-16T21:04:17.870Z,16.50
2023-05-16T21:06:45.741Z,16.52
2023-05-16T21:09:13.469Z,16.24
2023-05-16T21:11:41.425Z,15.60
2023-05-16T21:14:09.012Z,15.56
2023-05-16T21:16:37.279Z,15.54
2023-05-16T21:19:05.411Z,15.71
2023-05-16T21:21:33.194Z,15.67
2023-05-16T21:24:00.805Z,15.76
2023-05-16T21:26:28.656Z,15.88
2023-05-16T21:28:56.511Z,15.82
2023-05-16T21:31:24.213Z,15.79
2023-05-16T21:33:52.615Z,15.73
2023-05-16T21:36:20.812Z,15.86
2023-05-16T21:38:48.612Z,15.95
2023-05-16T21:41:16.763Z,16.02
2023-05-16T21:43:44.494Z,16.01
2023-05-16T21:46:12.206Z,16.05
2023-05-16T21:48:40.354Z,15.82
2023-05-16T21:51:08.086Z,15.72
2023-05-16T21:53:35.822Z,15.77
2023-05-16T21:56:05.358Z,15.75
2023-05-16T21:58:33.035Z,15.73
2023-05-16T22:01:00.676Z,15.87
2023-05-16T22:03:28.742Z,15.89
2023-05-16T22:05:56.724Z,15.77
2023-05-16T22:08:24.797Z,15.75
2023-05-16T22:10:52.660Z,15.64
2023-05-16T22:13:20.540Z,15.61
2023-05-16T22:16:03.343Z,15.61
2023-05-16T22:18:33.209Z,15.65
2023-05-16T22:21:01.623Z,15.73
2023-05-16T22:23:29.507Z,15.70
2023-05-16T22:25:57.473Z,15.74
2023-05-16T22:28:25.158Z,15.79
2023-05-16T22:30:52.999Z,15.83
2023-05-16T22:33:21.115Z,15.82
2023-05-16T22:35:49.344Z,15.70
2023-05-16T22:38:17.020Z,15.62
2023-05-16T22:40:44.968Z,15.73
2023-05-16T22:43:12.679Z,15.67
2023-05-16T22:45:40.438Z,15.57
2023-05-16T22:48:08.588Z,15.60
2023-05-16T22:50:36.384Z,15.60
2023-05-16T22:53:03.986Z,15.57
2023-05-16T22:55:31.967Z,15.40
2023-05-16T22:57:59.885Z,15.62
2023-05-16T23:00:27.507Z,15.70
2023-05-16T23:02:55.763Z,15.66
2023-05-16T23:05:23.394Z,15.51
2023-05-16T23:07:51.056Z,15.54
2023-05-16T23:10:19.050Z,15.71
2023-05-16T23:12:46.715Z,15.70
2023-05-16T23:15:14.457Z,15.68
2023-05-16T23:17:42.577Z,15.54
2023-05-16T23:20:10.506Z,15.72
2023-05-16T23:22:38.182Z,15.63
2023-05-16T23:25:06.805Z,15.69
2023-05-16T23:27:34.443Z,15.52
2023-05-16T23:30:02.120Z,15.48
2023-05-16T23:32:30.450Z,15.44
2023-05-16T23:34:58.115Z,15.36
2023-05-16T23:37:25.937Z,15.44
2023-05-16T23:39:54.055Z,15.39
2023-05-16T23:42:21.800Z,15.40
2023-05-16T23:44:49.518Z,15.30
2023-05-16T23:47:17.465Z,15.32
2023-05-16T23:49:45.112Z,15.27
2023-05-16T23:52:13.841Z,15.24
2023-05-16T23:54:41.737Z,15.35
2023-05-16T23:57:09.282Z,15.34
2023-05-16T23:59:37.085Z,15.48
